createdAt,value
2019-02-02T00:00:44.258Z,117.33
2019-02-02T00:03:34.496Z,116.70
2019-02-02T00:06:24.494Z,120.60
2019-02-02T00:09:14.569Z,108.30
2019-02-02T00:12:05.022Z,122.03
2019-02-02T00:14:55.123Z,119.37
2019-02-02T00:17:45.361Z,117.93
2019-02-02T00:20:35.502Z,109.40
2019-02-02T00:23:26.074Z,122.13
2019-02-02T00:26:16.314Z,109.57
2019-02-02T00:29:06.795Z,105.07
2019-02-02T00:31:57.112Z,98.00
2019-02-02T00:34:47.709Z,111.20
2019-02-02T00:37:38.978Z,111.67
2019-02-02T00:40:29.359Z,104.87
2019-02-02T00:43:19.646Z,106.37
2019-02-02T00:46:10.114Z,98.30
2019-02-02T00:49:00.339Z,94.13
2019-02-02T00:51:50.682Z,81.47
2019-02-02T00:54:40.986Z,73.60
2019-02-02T00:57:31.534Z,85.67
2019-02-02T01:00:22.366Z,80.80
2019-02-02T01:03:12.622Z,94.77
2019-02-02T01:06:04.856Z,85.83
2019-02-02T01:08:55.293Z,95.33
2019-02-02T01:11:46.646Z,96.73
2019-02-02T01:14:36.749Z,88.03
2019-02-02T01:17:26.997Z,92.77
2019-02-02T01:20:17.877Z,85.87
2019-02-02T01:23:08.663Z,105.07
2019-02-02T01:25:58.675Z,93.20
2019-02-02T01:28:48.752Z,93.27
2019-02-02T01:31:38.918Z,100.30
2019-02-02T01:34:29.358Z,109.20
2019-02-02T01:37:19.725Z,105.63
2019-02-02T01:40:12.750Z,92.20
2019-02-02T01:43:02.669Z,87.50
2019-02-02T01:45:52.869Z,88.60
2019-02-02T01:48:42.877Z,88.97
2019-02-02T01:51:32.970Z,95.83
2019-02-02T01:54:23.041Z,91.40
2019-02-02T01:57:13.393Z,89.90
2019-02-02T02:00:04.354Z,91.53
2019-02-02T02:02:54.606Z,96.53
2019-02-02T02:05:45.011Z,97.70
2019-02-02T02:08:35.361Z,91.17
2019-02-02T02:11:25.614Z,97.30
2019-02-02T02:14:17.082Z,86.57
2019-02-02T02:17:07.913Z,89.60
2019-02-02T02:19:58.250Z,97.13
2019-02-02T02:22:48.857Z,88.40
2019-02-02T02:25:39.394Z,90.33
2019-02-02T02:28:29.579Z,83.47
2019-02-02T02:31:20.141Z,94.20
2019-02-02T02:34:11.253Z,80.70
2019-02-02T02:37:01.340Z,87.37
2019-02-02T02:39:51.500Z,92.33
2019-02-02T02:42:41.882Z,99.27
2019-02-02T02:45:32.046Z,96.87
2019-02-02T02:48:23.114Z,105.73
2019-02-02T02:51:13.409Z,97.70
2019-02-02T02:54:03.626Z,103.33
2019-02-02T02:56:53.863Z,101.43
2019-02-02T02:59:44.260Z,95.27
2019-02-02T03:02:34.374Z,95.67
2019-02-02T03:05:24.609Z,106.63
2019-02-02T03:08:15.130Z,117.00
2019-02-02T03:11:05.485Z,109.70
2019-02-02T03:13:56.485Z,98.10
2019-02-02T03:16:47.210Z,111.97
2019-02-02T03:19:37.406Z,103.87
2019-02-02T03:22:27.748Z,114.23
2019-02-02T03:25:20.242Z,104.97
2019-02-02T03:28:10.502Z,110.30
2019-02-02T03:31:00.792Z,127.73
2019-02-02T03:33:51.127Z,115.83
2019-02-02T03:36:41.422Z,111.40
2019-02-02T03:39:31.754Z,120.47
2019-02-02T03:42:22.085Z,108.70
2019-02-02T03:45:13.692Z,107.83
2019-02-02T03:48:04.082Z,118.63
2019-02-02T03:50:54.287Z,118.40
2019-02-02T03:53:45.046Z,110.17
2019-02-02T03:56:34.983Z,102.87
2019-02-02T03:59:25.078Z,121.33
2019-02-02T04:02:15.377Z,108.33
2019-02-02T04:05:07.369Z,109.60
2019-02-02T04:07:57.816Z,117.90
2019-02-02T04:10:47.851Z,101.03
2019-02-02T04:13:38.357Z,118.30
2019-02-02T04:16:28.630Z,115.57
2019-02-02T04:19:18.985Z,125.03
2019-02-02T04:22:08.921Z,117.03
2019-02-02T04:24:59.274Z,118.53
2019-02-02T04:27:49.343Z,109.37
2019-02-02T04:30:39.819Z,112.20
2019-02-02T04:33:30.200Z,119.60
2019-02-02T04:36:20.818Z,118.43
2019-02-02T04:39:11.182Z,118.63
2019-02-02T04:42:01.297Z,111.13
2019-02-02T04:44:51.491Z,107.07
2019-02-02T04:47:41.674Z,106.63
2019-02-02T04:50:32.082Z,113.70
2019-02-02T04:53:22.236Z,107.77
2019-02-02T04:56:12.626Z,107.13
2019-02-02T04:59:02.637Z,97.10
2019-02-02T05:01:53.041Z,102.83
2019-02-02T05:04:43.820Z,93.47
2019-02-02T05:07:34.194Z,113.03
2019-02-02T05:10:24.432Z,91.13
2019-02-02T05:13:15.302Z,102.87
2019-02-02T05:16:05.838Z,94.77
2019-02-02T05:18:56.712Z,109.67
2019-02-02T05:21:46.762Z,99.63
2019-02-02T05:24:37.302Z,105.90
2019-02-02T05:27:27.614Z,106.00
2019-02-02T05:30:23.562Z,104.80
2019-02-02T05:33:13.840Z,110.07
2019-02-02T05:36:04.310Z,95.07
2019-02-02T05:38:54.275Z,86.37
2019-02-02T05:41:44.467Z,82.63
2019-02-02T05:44:35.158Z,85.90
2019-02-02T05:47:25.325Z,76.67
2019-02-02T05:50:19.076Z,71.20
2019-02-02T05:53:08.975Z,75.83
2019-02-02T05:55:59.306Z,64.23
2019-02-02T05:58:49.391Z,66.47
2019-02-02T06:01:39.882Z,67.43
2019-02-02T06:04:30.218Z,58.27
2019-02-02T06:07:21.056Z,59.03
2019-02-02T06:10:12.930Z,57.37
2019-02-02T06:13:02.957Z,49.43
2019-02-02T06:15:52.895Z,49.37
2019-02-02T06:18:42.986Z,47.07
2019-02-02T06:21:33.378Z,41.50
2019-02-02T06:24:23.502Z,46.40
2019-02-02T06:27:13.519Z,37.30
2019-02-02T06:30:05.029Z,43.20
2019-02-02T06:32:55.489Z,34.83
2019-02-02T06:35:45.941Z,38.37
2019-02-02T06:38:36.281Z,35.90
2019-02-02T06:41:26.682Z,32.27
2019-02-02T06:44:16.962Z,29.00
2019-02-02T06:47:07.237Z,29.30
2019-02-02T06:49:57.425Z,32.20
2019-02-02T06:52:47.656Z,34.00
2019-02-02T06:55:37.916Z,33.07
2019-02-02T06:58:28.751Z,32.67
2019-02-02T07:01:18.858Z,30.07
2019-02-02T07:04:09.069Z,30.87
2019-02-02T07:06:59.327Z,30.77
2019-02-02T07:09:49.851Z,29.70
2019-02-02T07:12:40.101Z,37.20
2019-02-02T07:15:30.522Z,36.77
2019-02-02T07:18:21.277Z,29.50
2019-02-02T07:21:11.280Z,29.53
2019-02-02T07:24:01.223Z,35.73
2019-02-02T07:26:51.533Z,34.60
2019-02-02T07:29:41.669Z,32.80
2019-02-02T07:32:31.943Z,32.00
2019-02-02T07:35:22.652Z,35.33
2019-02-02T07:38:13.963Z,29.77
2019-02-02T07:41:04.479Z,31.53
2019-02-02T07:43:54.581Z,29.60
2019-02-02T07:46:44.576Z,28.03
2019-02-02T07:49:35.546Z,26.30
2019-02-02T07:52:25.598Z,30.37
2019-02-02T07:55:17.250Z,27.40
2019-02-02T07:58:07.362Z,30.17
2019-02-02T08:00:57.482Z,25.13
2019-02-02T08:03:48.035Z,31.60
2019-02-02T08:06:38.151Z,27.70
2019-02-02T08:09:28.514Z,27.40
2019-02-02T08:12:19.545Z,26.37
2019-02-02T08:15:12.664Z,25.53
2019-02-02T08:18:02.676Z,23.77
2019-02-02T08:20:52.898Z,22.07
2019-02-02T08:23:43.136Z,26.00
2019-02-02T08:26:33.518Z,24.50
2019-02-02T08:29:24.535Z,21.93
2019-02-02T08:32:14.658Z,25.67
2019-02-02T08:35:05.735Z,22.90
2019-02-02T08:37:56.266Z,31.03
2019-02-02T08:40:46.846Z,20.30
2019-02-02T08:43:36.849Z,24.57
2019-02-02T08:46:26.856Z,25.47
2019-02-02T08:49:17.030Z,26.27
2019-02-02T08:52:07.384Z,23.60
2019-02-02T08:54:57.315Z,20.83
2019-02-02T08:57:47.810Z,22.97
2019-02-02T09:00:38.123Z,19.97
2019-02-02T09:03:28.352Z,21.73
2019-02-02T09:06:19.246Z,18.93
2019-02-02T09:09:10.424Z,24.90
2019-02-02T09:12:00.870Z,21.40
2019-02-02T09:14:50.874Z,20.07
2019-02-02T09:17:41.250Z,19.47
2019-02-02T09:20:31.598Z,21.57
2019-02-02T09:23:21.888Z,17.70
2019-02-02T09:26:12.238Z,18.50
2019-02-02T09:29:02.171Z,25.27
2019-02-02T09:31:52.506Z,22.47
2019-02-02T09:34:42.770Z,16.77
2019-02-02T09:37:33.278Z,23.87
2019-02-02T09:40:25.595Z,16.70
2019-02-02T09:43:17.369Z,21.13
2019-02-02T09:46:07.910Z,19.53
2019-02-02T09:48:58.076Z,24.97
2019-02-02T09:51:48.485Z,22.93
2019-02-02T09:54:38.466Z,21.73
2019-02-02T09:57:28.821Z,22.50
2019-02-02T10:00:38.098Z,20.37
2019-02-02T10:03:28.354Z,21.30
2019-02-02T10:06:18.618Z,20.30
2019-02-02T10:09:09.874Z,19.73
2019-02-02T10:12:00.110Z,19.70
2019-02-02T10:14:50.694Z,19.40
2019-02-02T10:17:40.730Z,21.30
2019-02-02T10:20:31.426Z,24.20
2019-02-02T10:23:21.463Z,22.67
2019-02-02T10:26:11.693Z,21.30
2019-02-02T10:29:02.538Z,23.70
2019-02-02T10:31:52.810Z,23.30
2019-02-02T10:34:43.410Z,22.00
2019-02-02T10:37:33.438Z,23.33
2019-02-02T10:40:23.802Z,19.67
2019-02-02T10:43:14.082Z,16.93
2019-02-02T10:46:04.446Z,21.50
2019-02-02T10:48:55.022Z,21.70
2019-02-02T10:51:45.138Z,23.20
2019-02-02T10:54:35.563Z,21.63
2019-02-02T10:57:25.793Z,19.63
2019-02-02T11:00:18.949Z,23.03
2019-02-02T11:03:08.797Z,21.73
2019-02-02T11:05:58.890Z,21.93
2019-02-02T11:08:49.098Z,21.43
2019-02-02T11:11:39.513Z,23.50
2019-02-02T11:14:29.514Z,19.73
2019-02-02T11:17:19.684Z,18.40
2019-02-02T11:20:13.115Z,20.70
2019-02-02T11:23:03.798Z,20.97
2019-02-02T11:25:54.277Z,22.03
2019-02-02T11:28:44.785Z,21.87
2019-02-02T11:31:34.785Z,29.23
2019-02-02T11:34:24.916Z,23.43
2019-02-02T11:37:15.106Z,25.40
2019-02-02T11:40:07.326Z,25.47
2019-02-02T11:42:58.551Z,33.97
2019-02-02T11:45:48.522Z,26.43
2019-02-02T11:48:40.197Z,21.23
2019-02-02T11:51:30.139Z,23.33
2019-02-02T11:54:20.310Z,26.13
2019-02-02T11:57:10.845Z,22.87
2019-02-02T12:00:01.076Z,25.67
2019-02-02T12:02:51.581Z,23.10
2019-02-02T12:05:41.690Z,24.40
2019-02-02T12:08:31.657Z,22.83
2019-02-02T12:11:22.148Z,25.87
2019-02-02T12:14:12.272Z,24.60
2019-02-02T12:17:02.453Z,24.63
2019-02-02T12:19:52.620Z,25.47
2019-02-02T12:22:42.899Z,26.93
2019-02-02T12:25:33.106Z,30.07
2019-02-02T12:28:23.352Z,31.33
2019-02-02T12:31:13.581Z,30.93
2019-02-02T12:34:03.690Z,28.73
2019-02-02T12:36:53.991Z,34.20
2019-02-02T12:39:43.997Z,32.73
2019-02-02T12:42:34.319Z,33.20
2019-02-02T12:45:27.654Z,28.93
2019-02-02T12:48:18.494Z,31.50
2019-02-02T12:51:08.810Z,26.67
2019-02-02T12:53:59.294Z,34.77
2019-02-02T12:56:50.789Z,29.50
2019-02-02T12:59:41.011Z,29.40
2019-02-02T13:02:38.120Z,34.87
2019-02-02T13:05:23.414Z,25.43
2019-02-02T13:08:13.834Z,34.27
2019-02-02T13:11:04.190Z,26.80
2019-02-02T13:13:54.522Z,27.93
2019-02-02T13:16:44.739Z,30.43
2019-02-02T13:19:34.899Z,30.13
2019-02-02T13:22:24.950Z,32.90
2019-02-02T13:25:16.905Z,31.30
2019-02-02T13:28:07.303Z,28.80
2019-02-02T13:30:58.177Z,28.13
2019-02-02T13:33:48.174Z,33.97
2019-02-02T13:36:38.457Z,33.57
2019-02-02T13:39:29.883Z,34.97
2019-02-02T13:42:20.841Z,36.30
2019-02-02T13:45:11.530Z,27.70
2019-02-02T13:48:01.690Z,33.83
2019-02-02T13:50:52.055Z,30.83
2019-02-02T13:53:42.234Z,31.97
2019-02-02T13:56:32.615Z,28.87
2019-02-02T13:59:22.986Z,25.97
2019-02-02T14:02:13.033Z,22.50
2019-02-02T14:05:03.323Z,30.80
2019-02-02T14:07:53.343Z,28.63
2019-02-02T14:10:43.461Z,22.80
2019-02-02T14:13:33.662Z,30.77
2019-02-02T14:16:23.618Z,36.80
2019-02-02T14:19:13.911Z,31.43
2019-02-02T14:22:05.174Z,31.53
2019-02-02T14:24:55.679Z,32.37
2019-02-02T14:27:45.695Z,22.80
2019-02-02T14:30:36.010Z,21.47
2019-02-02T14:33:26.113Z,25.87
2019-02-02T14:36:16.341Z,23.70
2019-02-02T14:39:09.538Z,26.60
2019-02-02T14:41:59.743Z,24.07
2019-02-02T14:44:50.228Z,20.43
2019-02-02T14:48:09.663Z,20.03
2019-02-02T14:51:05.100Z,18.00
2019-02-02T14:53:55.142Z,22.07
2019-02-02T14:56:47.961Z,16.97
2019-02-02T14:59:36.742Z,13.93
2019-02-02T15:02:26.930Z,13.83
2019-02-02T15:05:19.246Z,11.63
2019-02-02T15:08:09.609Z,10.13
2019-02-02T15:10:59.791Z,10.10
2019-02-02T15:13:50.149Z,9.57
2019-02-02T15:16:40.159Z,7.20
2019-02-02T15:19:30.218Z,8.73
2019-02-02T15:22:20.559Z,8.40
2019-02-02T15:25:10.720Z,14.47
2019-02-02T15:28:00.858Z,12.60
2019-02-02T15:30:50.853Z,10.83
2019-02-02T15:33:40.834Z,8.50
2019-02-02T15:36:31.383Z,9.73
2019-02-02T15:39:21.858Z,12.20
2019-02-02T15:42:13.030Z,13.30
2019-02-02T15:45:03.202Z,8.87
2019-02-02T15:47:55.902Z,10.43
2019-02-02T15:50:45.903Z,12.33
2019-02-02T15:53:36.254Z,14.37
2019-02-02T15:56:26.306Z,11.10
2019-02-02T15:59:16.674Z,19.20
2019-02-02T16:02:06.751Z,17.53
2019-02-02T16:04:56.654Z,12.97
2019-02-02T16:07:46.890Z,18.27
2019-02-02T16:10:36.818Z,16.50
2019-02-02T16:13:27.138Z,19.13
2019-02-02T16:16:17.190Z,17.83
2019-02-02T16:19:07.195Z,19.93
2019-02-02T16:21:57.538Z,21.27
2019-02-02T16:24:47.825Z,20.90
2019-02-02T16:27:38.186Z,21.73
2019-02-02T16:30:28.862Z,16.53
2019-02-02T16:33:18.982Z,27.60
2019-02-02T16:36:09.446Z,22.93
2019-02-02T16:38:59.413Z,23.93
2019-02-02T16:41:49.474Z,23.47
2019-02-02T16:44:39.450Z,23.33
2019-02-02T16:47:29.781Z,25.30
2019-02-02T16:50:20.166Z,21.97
2019-02-02T16:53:10.841Z,19.53
2019-02-02T16:56:01.157Z,18.27
2019-02-02T16:58:51.079Z,18.03
2019-02-02T17:01:41.361Z,19.33
2019-02-02T17:04:32.560Z,17.90
2019-02-02T17:07:22.822Z,18.53
2019-02-02T17:10:18.683Z,13.23
2019-02-02T17:13:08.990Z,17.33
2019-02-02T17:15:59.707Z,20.27
2019-02-02T17:18:49.797Z,14.83
2019-02-02T17:21:40.151Z,16.70
2019-02-02T17:24:30.363Z,16.33
2019-02-02T17:27:20.866Z,18.23
2019-02-02T17:30:14.411Z,15.57
2019-02-02T17:33:06.985Z,13.40
2019-02-02T17:35:56.950Z,16.40
2019-02-02T17:38:47.321Z,14.07
2019-02-02T17:41:37.525Z,14.07
2019-02-02T17:44:28.400Z,14.13
2019-02-02T17:47:18.602Z,15.87
2019-02-02T17:50:11.682Z,18.33
2019-02-02T17:53:01.683Z,19.23
2019-02-02T17:55:51.993Z,19.00
2019-02-02T17:58:42.143Z,19.47
2019-02-02T18:01:32.202Z,18.63
2019-02-02T18:04:22.115Z,24.67
2019-02-02T18:07:12.006Z,18.10
2019-02-02T18:10:02.368Z,22.80
2019-02-02T18:12:53.386Z,23.33
2019-02-02T18:15:43.763Z,22.33
2019-02-02T18:18:34.291Z,20.83
2019-02-02T18:21:24.318Z,22.13
2019-02-02T18:24:14.362Z,18.20
2019-02-02T18:27:04.522Z,25.13
2019-02-02T18:29:54.930Z,19.83
2019-02-02T18:32:45.018Z,18.20
2019-02-02T18:35:35.702Z,23.50
2019-02-02T18:38:25.798Z,21.00
2019-02-02T18:41:16.611Z,22.77
2019-02-02T18:44:06.884Z,26.50
2019-02-02T18:46:57.187Z,22.53
2019-02-02T18:49:47.474Z,19.57
2019-02-02T18:52:37.746Z,19.13
2019-02-02T18:55:49.654Z,22.57
2019-02-02T18:58:39.825Z,25.13
2019-02-02T19:01:30.175Z,20.83
2019-02-02T19:04:20.266Z,22.30
2019-02-02T19:07:10.370Z,21.17
2019-02-02T19:10:00.458Z,25.23
2019-02-02T19:12:50.451Z,23.33
2019-02-02T19:15:40.683Z,19.30
2019-02-02T19:18:31.150Z,23.63
2019-02-02T19:21:21.798Z,23.23
2019-02-02T19:24:12.270Z,16.87
2019-02-02T19:27:02.528Z,22.17
2019-02-02T19:29:53.826Z,25.50
2019-02-02T19:32:44.339Z,19.87
2019-02-02T19:35:34.462Z,19.13
2019-02-02T19:38:24.917Z,22.10
2019-02-02T19:41:14.999Z,20.93
2019-02-02T19:44:05.441Z,15.10
2019-02-02T19:46:55.533Z,30.87
2019-02-02T19:49:45.770Z,18.80
2019-02-02T19:52:36.011Z,27.30
2019-02-02T19:55:26.355Z,23.90
2019-02-02T19:58:16.337Z,27.70
2019-02-02T20:01:06.601Z,18.60
2019-02-02T20:03:56.926Z,16.70
2019-02-02T20:06:47.269Z,19.10
2019-02-02T20:09:37.522Z,19.93
2019-02-02T20:12:27.830Z,18.90
